« Back
NWS Peachtree City, Ga » Text Product » MCN Terminal Aerodrome Forecast


Printer-friendly Version
Current Version              Previous Versions:   1  2  3  4  5  6  7  8  9  

Terminal Aerodrome Forecast

984
FTUS42 KFFC 010538
TAFMCN
TAF
KMCN 010538Z 0106/0206 30008KT 6SM SHRA SCT050 BKN080
     FM010800 00000KT P6SM VCSH SCT050 BKN080
      TEMPO 0110/0113 3SM TSRA BR BKN025CB
     FM011500 31006KT P6SM BKN040
     FM011800 32006KT P6SM SCT050
     FM020300 09004KT P6SM SCT160=



USA.gov is the U.S. government's official web portal to all federal, state and local government web resources and services.